Time;durP1;ratioP1;P1;durP2;ratioP2;P2;SDS_P1;SDS_P2;PMS_P1;PMS_P2;Temp;Humidity;BMP_temperature;BMP_pressure;BME280_temperature;BME280_humidity;BME280_pressure;Samples;Min_cycle;Max_cycle;Signal;HPM_P1;HPM_P2
2022/05/22 00:00:13;;;;;;;9.23;8.63;;;;;;;;;;5033747;28;20112;-69
2022/05/22 00:02:40;;;;;;;9.02;8.43;;;;;;;;;;5033062;28;20033;-66
2022/05/22 00:05:07;;;;;;;8.48;7.88;;;;;;;;;;5032303;28;20037;-68
2022/05/22 00:07:33;;;;;;;8.13;7.63;;;;;;;;;;5032012;28;20029;-66
2022/05/22 00:09:58;;;;;;;9.18;8.57;;;;;;;;;;5032870;28;20664;-68
2022/05/22 00:12:24;;;;;;;9.57;8.88;;;;;;;;;;5032016;28;20106;-68
2022/05/22 00:14:49;;;;;;;12.27;11.55;;;;;;;;;;5032758;28;20029;-68
2022/05/22 00:17:14;;;;;;;13.00;12.20;;;;;;;;;;5033124;28;20037;-68
2022/05/22 00:19:40;;;;;;;13.00;12.25;;;;;;;;;;5034768;28;20064;-68
2022/05/22 00:22:06;;;;;;;15.13;14.27;;;;;;;;;;5034323;28;20040;-68
2022/05/22 00:24:32;;;;;;;15.98;15.05;;;;;;;;;;5034958;28;20029;-68
2022/05/22 00:27:00;;;;;;;17.50;16.48;;;;;;;;;;5033534;28;20120;-67
2022/05/22 00:29:26;;;;;;;19.08;18.00;;;;;;;;;;5037595;28;20658;-68
2022/05/22 00:31:52;;;;;;;26.25;24.85;;;;;;;;;;5036144;28;20099;-65
2022/05/22 00:34:17;;;;;;;35.65;33.80;;;;;;;;;;5034083;28;20026;-66
2022/05/22 00:36:43;;;;;;;36.97;35.03;;;;;;;;;;5033897;28;20545;-65
2022/05/22 00:39:08;;;;;;;31.48;29.77;;;;;;;;;;5036703;28;20028;-65
2022/05/22 00:41:34;;;;;;;26.55;25.15;;;;;;;;;;5032185;28;20030;-64
2022/05/22 00:44:02;;;;;;;27.10;25.65;;;;;;;;;;5033511;28;20049;-64
2022/05/22 00:46:29;;;;;;;32.97;31.25;;;;;;;;;;5034224;28;20040;-63
2022/05/22 00:49:01;;;;;;;29.83;28.25;;;;;;;;;;5034958;28;20033;-64
2022/05/22 00:51:36;;;;;;;20.63;19.45;;;;;;;;;;5033325;28;20037;-65
2022/05/22 00:54:09;;;;;;;16.50;15.57;;;;;;;;;;5036548;28;20034;-65
2022/05/22 00:56:50;;;;;;;15.00;14.10;;;;;;;;;;5034400;28;20474;-65
2022/05/22 00:59:19;;;;;;;;;;;;;;;;;;5035899;28;20056;-67
2022/05/22 01:01:46;;;;;;;11.38;10.68;;;;;;;;;;5038895;28;19936;-66
2022/05/22 01:04:21;;;;;;;11.85;11.05;;;;;;;;;;5033360;28;20490;-67
2022/05/22 01:06:47;;;;;;;10.07;9.48;;;;;;;;;;5033472;28;20048;-67
2022/05/22 01:09:12;;;;;;;10.90;10.20;;;;;;;;;;5035660;28;20316;-67
2022/05/22 01:11:38;;;;;;;9.82;9.23;;;;;;;;;;5035979;28;20382;-67
2022/05/22 01:14:09;;;;;;;9.35;8.75;;;;;;;;;;5033556;28;20113;-67
2022/05/22 01:16:35;;;;;;;10.93;10.23;;;;;;;;;;5031523;28;20634;-68
2022/05/22 01:19:00;;;;;;;10.10;9.40;;;;;;;;;;5033209;28;20063;-67
2022/05/22 01:21:30;;;;;;;9.38;8.77;;;;;;;;;;5033639;28;20053;-68
2022/05/22 01:23:56;;;;;;;10.18;9.57;;;;;;;;;;5034154;28;20116;-68
2022/05/22 01:26:24;;;;;;;9.23;8.52;;;;;;;;;;5032604;28;20036;-68
2022/05/22 01:28:50;;;;;;;8.50;7.90;;;;;;;;;;5034532;28;20033;-68
2022/05/22 01:31:17;;;;;;;28.63;8.48;;;;;;;;;;5034909;28;20119;-69
2022/05/22 01:33:42;;;;;;;8.85;8.25;;;;;;;;;;5030787;28;20036;-68
2022/05/22 01:36:08;;;;;;;7.75;7.25;;;;;;;;;;5036136;28;20558;-68
2022/05/22 01:38:35;;;;;;;8.98;8.38;;;;;;;;;;5033897;28;20037;-68
2022/05/22 01:41:00;;;;;;;9.13;8.52;;;;;;;;;;5036888;28;20586;-69
2022/05/22 01:43:25;;;;;;;8.25;7.65;;;;;;;;;;5035785;28;20033;-69
2022/05/22 01:45:51;;;;;;;9.15;8.55;;;;;;;;;;5035018;28;20124;-68
2022/05/22 01:48:17;;;;;;;8.27;7.78;;;;;;;;;;5035212;28;20086;-68
2022/05/22 01:50:44;;;;;;;8.60;8.05;;;;;;;;;;5032283;28;20057;-68
2022/05/22 01:53:10;;;;;;;8.73;8.13;;;;;;;;;;5034560;28;20082;-70
2022/05/22 01:55:36;;;;;;;8.35;7.75;;;;;;;;;;5037308;28;20117;-70
2022/05/22 01:58:06;;;;;;;9.02;8.32;;;;;;;;;;5032117;28;20084;-69
2022/05/22 02:00:33;;;;;;;9.60;9.00;;;;;;;;;;5034513;28;20033;-69
2022/05/22 02:02:58;;;;;;;8.93;8.32;;;;;;;;;;5031122;28;20037;-70
2022/05/22 02:05:24;;;;;;;8.02;7.43;;;;;;;;;;5033039;28;20034;-70
2022/05/22 02:10:34;;;;;;;9.07;8.48;;;;;;;;;;5033546;28;20095;-69
2022/05/22 02:13:01;;;;;;;8.80;8.20;;;;;;;;;;5030901;28;20521;-68
2022/05/22 02:15:27;;;;;;;8.57;7.97;;;;;;;;;;5030880;28;20021;-69
2022/05/22 02:17:53;;;;;;;7.72;7.22;;;;;;;;;;5035107;28;20040;-69
2022/05/22 02:20:19;;;;;;;8.63;8.02;;;;;;;;;;5032799;28;20053;-69
2022/05/22 02:22:48;;;;;;;8.68;8.07;;;;;;;;;;5032781;28;20080;-68
2022/05/22 02:25:16;;;;;;;8.30;7.70;;;;;;;;;;5033916;28;20047;-69
2022/05/22 02:27:41;;;;;;;7.90;7.40;;;;;;;;;;5036599;28;20033;-69
2022/05/22 02:30:08;;;;;;;8.15;7.65;;;;;;;;;;5032596;28;20033;-69
2022/05/22 02:32:36;;;;;;;8.70;8.10;;;;;;;;;;5033533;28;20466;-69
2022/05/22 02:35:04;;;;;;;8.23;7.72;;;;;;;;;;5038342;28;20037;-70
2022/05/22 02:37:29;;;;;;;9.23;8.63;;;;;;;;;;5036314;28;20554;-68
2022/05/22 02:39:57;;;;;;;7.80;7.28;;;;;;;;;;5032498;28;20120;-69
2022/05/22 02:42:22;;;;;;;8.27;7.78;;;;;;;;;;5034926;28;20068;-68
2022/05/22 02:44:47;;;;;;;8.25;7.65;;;;;;;;;;5030506;28;20084;-69
2022/05/22 02:47:13;;;;;;;8.05;7.55;;;;;;;;;;5030276;28;20111;-68
2022/05/22 02:49:38;;;;;;;8.15;7.65;;;;;;;;;;5032318;28;20502;-68
2022/05/22 02:52:04;;;;;;;7.63;7.13;;;;;;;;;;5032670;28;20578;-68
2022/05/22 02:54:29;;;;;;;10.25;8.23;;;;;;;;;;5032076;28;20025;-68
2022/05/22 02:56:54;;;;;;;8.43;7.82;;;;;;;;;;5030682;28;20036;-68
2022/05/22 02:59:20;;;;;;;7.07;6.57;;;;;;;;;;5031675;28;20045;-68
2022/05/22 03:01:45;;;;;;;7.20;6.70;;;;;;;;;;5034161;28;20094;-68
2022/05/22 03:04:10;;;;;;;6.40;6.00;;;;;;;;;;5030833;28;20049;-68
2022/05/22 03:06:39;;;;;;;7.40;6.90;;;;;;;;;;5033812;28;20033;-68
2022/05/22 03:09:14;;;;;;;7.25;6.75;;;;;;;;;;5029904;28;20091;-68
2022/05/22 03:11:40;;;;;;;7.10;6.60;;;;;;;;;;5032661;28;20510;-68
2022/05/22 03:14:06;;;;;;;6.35;5.95;;;;;;;;;;5028880;28;20037;-69
2022/05/22 03:16:32;;;;;;;6.30;5.90;;;;;;;;;;5033549;28;20060;-69
2022/05/22 03:18:59;;;;;;;6.47;6.07;;;;;;;;;;5028796;28;20056;-69
2022/05/22 03:21:27;;;;;;;7.25;6.75;;;;;;;;;;5031757;28;20036;-69
2022/05/22 03:23:52;;;;;;;6.63;6.13;;;;;;;;;;5034102;28;20037;-69
2022/05/22 03:26:18;;;;;;;7.07;6.57;;;;;;;;;;5033948;28;20037;-68
2022/05/22 03:28:43;;;;;;;7.13;6.53;;;;;;;;;;5033299;28;20068;-68
2022/05/22 03:31:08;;;;;;;7.50;7.00;;;;;;;;;;5030191;28;20029;-68
2022/05/22 03:33:34;;;;;;;8.65;8.05;;;;;;;;;;5033557;28;20057;-68
2022/05/22 03:35:59;;;;;;;7.95;7.45;;;;;;;;;;5036311;28;20040;-69
2022/05/22 03:38:24;;;;;;;8.25;7.65;;;;;;;;;;5034016;28;20057;-69
2022/05/22 03:40:50;;;;;;;8.43;7.70;;;;;;;;;;5034716;28;20076;-69
2022/05/22 03:43:17;;;;;;;9.60;9.00;;;;;;;;;;5030608;28;20025;-68
2022/05/22 03:45:44;;;;;;;8.15;7.63;;;;;;;;;;5032950;28;20040;-69
2022/05/22 03:48:10;;;;;;;9.23;8.63;;;;;;;;;;5029770;28;20025;-69
2022/05/22 03:50:37;;;;;;;9.35;8.75;;;;;;;;;;5031935;28;20411;-69
2022/05/22 03:53:03;;;;;;;10.35;9.68;;;;;;;;;;5035585;28;20370;-69
2022/05/22 03:55:28;;;;;;;9.35;8.75;;;;;;;;;;5035835;28;20355;-69
2022/05/22 03:57:54;;;;;;;8.13;7.63;;;;;;;;;;5031213;28;20120;-68
2022/05/22 04:00:21;;;;;;;9.70;8.90;;;;;;;;;;5041435;28;20490;-68
2022/05/22 04:02:47;;;;;;;8.98;8.38;;;;;;;;;;5032685;28;20045;-69
2022/05/22 04:05:13;;;;;;;9.20;8.60;;;;;;;;;;5035406;28;20038;-69
2022/05/22 04:07:46;;;;;;;7.90;7.30;;;;;;;;;;5033435;28;20091;-69
2022/05/22 04:10:13;;;;;;;9.50;8.85;;;;;;;;;;5037790;28;20040;-69
2022/05/22 04:12:39;;;;;;;9.38;8.77;;;;;;;;;;5039575;28;20300;-69
2022/05/22 04:15:10;;;;;;;8.65;8.07;;;;;;;;;;5036710;28;20025;-69
2022/05/22 04:17:36;;;;;;;8.27;7.70;;;;;;;;;;5034605;28;20029;-69
2022/05/22 04:20:02;;;;;;;8.52;8.00;;;;;;;;;;5038474;28;20110;-69
2022/05/22 04:22:27;;;;;;;8.35;7.75;;;;;;;;;;5034921;28;20446;-69
2022/05/22 04:25:11;;;;;;;10.02;9.00;;;;;;;;;;5038903;28;20539;-69
2022/05/22 04:27:41;;;;;;;8.80;8.20;;;;;;;;;;5032258;28;20091;-69
2022/05/22 04:30:09;;;;;;;8.35;7.82;;;;;;;;;;5037158;28;20075;-70
2022/05/22 04:32:34;;;;;;;8.48;7.93;;;;;;;;;;5031470;28;20041;-70
2022/05/22 04:35:00;;;;;;;7.97;7.47;;;;;;;;;;5033326;28;20033;-69
2022/05/22 04:37:25;;;;;;;7.57;7.07;;;;;;;;;;5040899;28;20108;-69
2022/05/22 04:39:50;;;;;;;6.35;5.95;;;;;;;;;;5035500;28;20033;-69
2022/05/22 04:42:16;;;;;;;8.27;7.68;;;;;;;;;;5032111;28;20568;-69
2022/05/22 04:44:41;;;;;;;7.28;6.78;;;;;;;;;;5034436;28;20029;-69
2022/05/22 04:47:07;;;;;;;6.05;5.65;;;;;;;;;;5032710;28;20431;-69
2022/05/22 04:49:32;;;;;;;5.40;5.00;;;;;;;;;;5033741;28;20207;-69
2022/05/22 04:51:58;;;;;;;5.97;5.55;;;;;;;;;;5034234;28;20036;-69
2022/05/22 04:54:24;;;;;;;7.00;6.50;;;;;;;;;;5035662;28;20034;-69
2022/05/22 04:56:51;;;;;;;5.93;5.43;;;;;;;;;;5034362;28;20100;-69
2022/05/22 04:59:16;;;;;;;6.55;6.05;;;;;;;;;;5037078;28;20067;-68
2022/05/22 05:01:42;;;;;;;7.07;6.57;;;;;;;;;;5039938;28;20035;-68
2022/05/22 05:04:07;;;;;;;6.50;6.00;;;;;;;;;;5037624;28;20651;-68
2022/05/22 05:06:32;;;;;;;6.97;6.38;;;;;;;;;;5036126;28;20021;-68
2022/05/22 05:08:58;;;;;;;5.50;5.10;;;;;;;;;;5035881;28;20022;-69
2022/05/22 05:11:23;;;;;;;6.03;5.63;;;;;;;;;;5042033;28;20033;-70
2022/05/22 05:13:49;;;;;;;6.32;5.82;;;;;;;;;;5033677;28;20464;-70
2022/05/22 05:16:14;;;;;;;5.85;5.45;;;;;;;;;;5035143;28;20036;-70
2022/05/22 05:18:40;;;;;;;6.65;6.15;;;;;;;;;;5033765;28;20033;-70
2022/05/22 05:21:08;;;;;;;6.13;5.72;;;;;;;;;;5037554;28;20430;-69
2022/05/22 05:23:34;;;;;;;6.97;6.47;;;;;;;;;;5031000;28;20033;-69
2022/05/22 05:26:00;;;;;;;5.93;5.53;;;;;;;;;;5035080;28;20168;-70
2022/05/22 05:28:25;;;;;;;6.50;5.97;;;;;;;;;;5034305;28;20112;-69
2022/05/22 05:30:51;;;;;;;6.53;6.03;;;;;;;;;;5033966;28;20040;-70
2022/05/22 05:33:16;;;;;;;6.85;6.35;;;;;;;;;;5035421;28;20025;-69
2022/05/22 05:35:42;;;;;;;5.72;5.32;;;;;;;;;;5034729;28;20044;-69
2022/05/22 05:38:08;;;;;;;5.57;5.18;;;;;;;;;;5035709;28;20126;-69
2022/05/22 05:40:34;;;;;;;6.13;5.72;;;;;;;;;;5035500;28;20033;-70
2022/05/22 05:43:00;;;;;;;6.60;6.10;;;;;;;;;;5032705;28;20030;-70
2022/05/22 05:45:27;;;;;;;7.05;6.55;;;;;;;;;;5034194;28;20040;-69
2022/05/22 05:47:53;;;;;;;6.85;6.15;;;;;;;;;;5033115;28;20440;-71
2022/05/22 05:50:21;;;;;;;6.88;6.28;;;;;;;;;;5036017;28;20033;-70
2022/05/22 05:52:48;;;;;;;5.63;5.22;;;;;;;;;;5030835;28;20097;-70
2022/05/22 05:55:14;;;;;;;7.15;6.65;;;;;;;;;;5031919;28;20113;-70
2022/05/22 05:57:39;;;;;;;7.15;6.65;;;;;;;;;;5030774;28;20116;-71
2022/05/22 06:00:08;;;;;;;7.20;6.70;;;;;;;;;;5031611;28;20582;-69
2022/05/22 06:02:33;;;;;;;7.47;6.97;;;;;;;;;;5033904;28;20068;-69
2022/05/22 06:04:59;;;;;;;7.80;7.30;;;;;;;;;;5028505;28;20670;-69
2022/05/22 06:07:24;;;;;;;10.15;9.43;;;;;;;;;;5032944;28;20032;-68
2022/05/22 06:09:49;;;;;;;9.60;8.98;;;;;;;;;;5033433;28;20037;-69
2022/05/22 06:12:15;;;;;;;9.23;8.63;;;;;;;;;;5030939;28;20090;-68
2022/05/22 06:14:41;;;;;;;11.18;10.35;;;;;;;;;;5032501;28;20041;-70
2022/05/22 06:17:07;;;;;;;11.23;10.52;;;;;;;;;;5032586;28;20030;-70
2022/05/22 06:22:17;;;;;;;12.88;12.10;;;;;;;;;;5035295;28;20354;-72
2022/05/22 06:24:43;;;;;;;11.90;11.20;;;;;;;;;;5033940;28;20021;-71
2022/05/22 06:27:09;;;;;;;12.43;11.73;;;;;;;;;;5033204;28;20705;-70
2022/05/22 06:29:34;;;;;;;10.73;10.02;;;;;;;;;;5033455;28;20044;-72
2022/05/22 06:32:00;;;;;;;12.02;11.23;;;;;;;;;;5027959;28;20095;-70
2022/05/22 06:34:26;;;;;;;10.48;9.85;;;;;;;;;;5030486;28;20033;-71
2022/05/22 06:36:52;;;;;;;11.38;10.68;;;;;;;;;;5033532;28;20033;-71
2022/05/22 06:42:03;;;;;;;12.13;11.40;;;;;;;;;;5031127;28;20033;-71
2022/05/22 06:44:28;;;;;;;14.50;13.65;;;;;;;;;;5032232;28;20034;-71
2022/05/22 06:46:54;;;;;;;10.68;10.05;;;;;;;;;;5030928;28;20370;-71
2022/05/22 06:49:19;;;;;;;11.00;10.30;;;;;;;;;;5032932;28;20025;-72
2022/05/22 06:51:46;;;;;;;13.73;12.93;;;;;;;;;;5033139;28;20649;-72
2022/05/22 06:54:11;;;;;;;14.38;13.48;;;;;;;;;;5033034;28;20535;-71
2022/05/22 06:56:36;;;;;;;14.07;13.23;;;;;;;;;;5032265;28;20048;-72
2022/05/22 06:59:02;;;;;;;15.57;14.68;;;;;;;;;;5030779;28;20459;-71
2022/05/22 07:01:27;;;;;;;14.65;13.75;;;;;;;;;;5033916;28;20541;-70
2022/05/22 07:03:52;;;;;;;17.58;16.58;;;;;;;;;;5029762;28;20083;-71
2022/05/22 07:06:18;;;;;;;14.48;13.57;;;;;;;;;;5032916;28;20037;-71
2022/05/22 07:08:43;;;;;;;13.35;12.55;;;;;;;;;;5030444;28;20112;-71
2022/05/22 07:14:04;;;;;;;10.60;9.98;;;;;;;;;;5027142;28;20437;-70
2022/05/22 07:16:29;;;;;;;11.63;10.93;;;;;;;;;;5032347;28;20029;-70
2022/05/22 07:18:55;;;;;;;11.38;10.68;;;;;;;;;;5030795;28;20103;-72
2022/05/22 07:21:20;;;;;;;11.57;10.88;;;;;;;;;;5032901;28;20096;-71
2022/05/22 07:23:45;;;;;;;13.45;12.65;;;;;;;;;;5032031;28;20121;-70
2022/05/22 07:26:12;;;;;;;12.05;11.35;;;;;;;;;;5032789;28;20071;-72
2022/05/22 07:28:37;;;;;;;11.55;10.85;;;;;;;;;;5033896;28;20033;-71
2022/05/22 07:31:03;;;;;;;9.35;8.75;;;;;;;;;;5031024;28;20618;-71
2022/05/22 07:33:28;;;;;;;14.27;13.45;;;;;;;;;;5037359;28;20111;-70
2022/05/22 07:35:55;;;;;;;24.85;23.45;;;;;;;;;;5031686;28;20032;-71
2022/05/22 07:38:22;;;;;;;19.90;18.80;;;;;;;;;;5029176;28;20029;-72
2022/05/22 07:40:47;;;;;;;16.45;15.55;;;;;;;;;;5031721;28;20495;-71
2022/05/22 07:43:13;;;;;;;18.95;17.95;;;;;;;;;;5029839;28;20037;-71
2022/05/22 07:45:39;;;;;;;15.40;14.50;;;;;;;;;;5031074;28;20037;-71
2022/05/22 07:48:05;;;;;;;12.50;11.77;;;;;;;;;;5034360;28;20048;-71
2022/05/22 07:50:30;;;;;;;13.73;12.93;;;;;;;;;;5032679;28;20033;-70
2022/05/22 07:52:56;;;;;;;17.15;16.15;;;;;;;;;;5031977;28;20029;-70
2022/05/22 07:55:21;;;;;;;17.80;16.60;;;;;;;;;;5031462;28;20139;-70
2022/05/22 07:57:48;;;;;;;16.15;15.25;;;;;;;;;;5032206;28;20041;-70
2022/05/22 08:00:17;;;;;;;16.83;15.82;;;;;;;;;;5029616;28;20945;-70
2022/05/22 08:02:43;;;;;;;18.10;17.10;;;;;;;;;;5028294;28;20112;-70
2022/05/22 08:05:11;;;;;;;24.65;23.27;;;;;;;;;;5026711;28;20542;-71
2022/05/22 08:07:36;;;;;;;19.85;18.65;;;;;;;;;;5032980;28;20080;-71
2022/05/22 08:10:04;;;;;;;26.50;25.00;;;;;;;;;;5032520;28;20402;-71
2022/05/22 08:12:39;;;;;;;25.02;23.70;;;;;;;;;;5031927;28;20434;-71
2022/05/22 08:15:05;;;;;;;28.52;27.02;;;;;;;;;;5033435;28;20459;-72
2022/05/22 08:17:35;;;;;;;29.02;27.10;;;;;;;;;;5033934;28;20546;-70
2022/05/22 08:20:02;;;;;;;;;;;;;;;;;;5031531;28;20032;-72
2022/05/22 08:22:28;;;;;;;27.10;25.70;;;;;;;;;;5029220;28;19913;-72
2022/05/22 08:24:53;;;;;;;26.85;25.45;;;;;;;;;;5034131;28;20060;-71
2022/05/22 08:27:18;;;;;;;30.05;28.48;;;;;;;;;;5028212;28;20044;-72
2022/05/22 08:29:44;;;;;;;33.75;32.03;;;;;;;;;;5031936;28;20072;-72
2022/05/22 08:32:09;;;;;;;32.60;30.90;;;;;;;;;;5036214;28;20082;-73
2022/05/22 08:34:34;;;;;;;35.63;33.80;;;;;;;;;;5034154;28;20066;-72
2022/05/22 08:37:00;;;;;;;32.42;30.75;;;;;;;;;;5038129;28;20044;-73
2022/05/22 08:39:25;;;;;;;32.17;30.48;;;;;;;;;;5034135;28;20021;-71
2022/05/22 08:41:53;;;;;;;32.38;30.70;;;;;;;;;;5034625;28;20479;-72
2022/05/22 08:44:21;;;;;;;34.92;33.10;;;;;;;;;;5034734;28;20030;-72
2022/05/22 08:46:57;;;;;;;36.25;34.38;;;;;;;;;;5036304;28;20029;-71
2022/05/22 08:49:29;;;;;;;30.10;28.52;;;;;;;;;;5034833;28;20033;-72
2022/05/22 08:52:02;;;;;;;33.92;32.17;;;;;;;;;;5038061;28;20040;-72
2022/05/22 08:54:34;;;;;;;38.65;36.65;;;;;;;;;;5031681;28;20040;-71
2022/05/22 08:59:50;;;;;;;40.28;38.20;;;;;;;;;;5035877;28;20030;-70
2022/05/22 09:02:25;;;;;;;50.00;47.50;;;;;;;;;;5038349;28;20526;-71
2022/05/22 09:05:02;;;;;;;45.00;42.70;;;;;;;;;;5034962;28;20489;-71
2022/05/22 09:07:34;;;;;;;44.53;42.28;;;;;;;;;;5032814;28;20037;-70
2022/05/22 09:10:06;;;;;;;51.20;48.60;;;;;;;;;;5032065;28;20044;-72
2022/05/22 09:12:50;;;;;;;45.58;43.28;;;;;;;;;;5032296;28;20446;-72
2022/05/22 09:15:26;;;;;;;54.50;51.75;;;;;;;;;;5037047;28;20032;-72
2022/05/22 09:18:00;;;;;;;34.95;33.17;;;;;;;;;;5032309;28;20646;-72
2022/05/22 09:20:47;;;;;;;35.70;33.88;;;;;;;;;;5036073;28;20045;-73
2022/05/22 09:23:43;;;;;;;35.08;33.28;;;;;;;;;;5033523;28;20065;-71
2022/05/22 09:26:15;;;;;;;33.95;32.15;;;;;;;;;;5035166;28;20468;-72
2022/05/22 09:28:47;;;;;;;40.92;38.83;;;;;;;;;;5034215;28;20029;-71
2022/05/22 09:31:37;;;;;;;40.72;38.65;;;;;;;;;;5034800;28;20038;-72
2022/05/22 09:34:20;;;;;;;37.30;35.38;;;;;;;;;;5032555;28;21747;-70
2022/05/22 09:37:07;;;;;;;37.75;35.85;;;;;;;;;;5032864;28;20665;-72
2022/05/22 09:40:04;;;;;;;42.58;40.40;;;;;;;;;;5033970;28;20108;-74
2022/05/22 09:42:44;;;;;;;38.15;36.20;;;;;;;;;;5036058;28;20413;-70
2022/05/22 09:45:44;;;;;;;39.95;37.92;;;;;;;;;;5031886;28;20029;-71
2022/05/22 09:48:13;;;;;;;45.80;43.40;;;;;;;;;;5029915;28;20041;-70
2022/05/22 09:51:02;;;;;;;39.80;37.78;;;;;;;;;;5033288;28;20486;-70
2022/05/22 09:53:45;;;;;;;39.17;37.17;;;;;;;;;;5034035;28;20045;-70
2022/05/22 09:56:37;;;;;;;50.50;47.75;;;;;;;;;;5037087;28;20025;-70
2022/05/22 09:59:29;;;;;;;44.08;41.85;;;;;;;;;;5031156;28;20482;-71
2022/05/22 10:01:58;;;;;;;86.40;82.07;;;;;;;;;;5034523;28;20082;-73
2022/05/22 10:04:37;;;;;;;99.82;94.82;;;;;;;;;;5031346;28;20064;-69
2022/05/22 10:07:17;;;;;;;81.97;77.85;;;;;;;;;;5030969;28;20060;-70
2022/05/22 10:10:01;;;;;;;92.75;87.82;;;;;;;;;;5027050;28;20037;-69
2022/05/22 10:13:10;;;;;;;94.25;89.53;;;;;;;;;;5032224;28;20036;-70
2022/05/22 10:16:00;;;;;;;136.80;130.05;;;;;;;;;;5035364;28;20037;-71
2022/05/22 10:19:13;;;;;;;108.90;103.45;;;;;;;;;;5034027;28;20044;-71
2022/05/22 10:22:17;;;;;;;58.65;55.70;;;;;;;;;;4981762;28;20066;-72
2022/05/22 10:25:04;;;;;;;100.35;95.28;;;;;;;;;;4986049;28;20050;-73
2022/05/22 10:27:49;;;;;;;85.72;81.43;;;;;;;;;;5031174;28;20033;-71
2022/05/22 10:30:24;;;;;;;116.85;111.03;;;;;;;;;;5031918;28;20285;-71
2022/05/22 10:33:24;;;;;;;100.25;95.25;;;;;;;;;;5033855;28;20028;-71
2022/05/22 10:35:55;;;;;;;130.10;123.60;;;;;;;;;;4996135;28;20042;-71
2022/05/22 10:38:35;;;;;;;137.20;129.95;;;;;;;;;;5030177;28;20471;-71
2022/05/22 10:44:03;;;;;;;153.00;145.32;;;;;;;;;;5033452;28;20106;-71
2022/05/22 10:46:29;;;;;;;112.03;106.35;;;;;;;;;;5015618;28;20063;-70
2022/05/22 10:48:56;;;;;;;52.10;49.45;;;;;;;;;;5031961;28;20857;-70
2022/05/22 10:51:28;;;;;;;35.22;33.33;;;;;;;;;;5033561;28;20034;-70
2022/05/22 10:53:57;;;;;;;33.60;31.90;;;;;;;;;;5034719;28;20045;-70
2022/05/22 10:56:29;;;;;;;38.90;36.90;;;;;;;;;;5030274;28;20060;-70
2022/05/22 10:59:00;;;;;;;30.92;29.33;;;;;;;;;;5028081;28;20091;-72
2022/05/22 11:01:31;;;;;;;35.42;33.63;;;;;;;;;;5029763;28;20091;-73
2022/05/22 11:04:08;;;;;;;68.28;64.80;;;;;;;;;;5032062;28;20037;-72
2022/05/22 11:06:36;;;;;;;40.40;38.30;;;;;;;;;;5032693;28;20033;-70
2022/05/22 11:09:03;;;;;;;40.92;38.72;;;;;;;;;;5031365;28;20029;-69
2022/05/22 11:11:35;;;;;;;39.10;37.08;;;;;;;;;;5034762;28;20029;-70
2022/05/22 11:14:13;;;;;;;31.85;30.17;;;;;;;;;;5032395;28;20025;-72
2022/05/22 11:16:39;;;;;;;36.85;34.95;;;;;;;;;;5033338;28;20098;-70
2022/05/22 11:19:11;;;;;;;66.82;63.35;;;;;;;;;;5029389;28;20573;-71
2022/05/22 11:21:48;;;;;;;104.43;99.20;;;;;;;;;;5032004;28;20037;-71
2022/05/22 11:24:39;;;;;;;45.38;43.05;;;;;;;;;;5033456;28;20033;-71
2022/05/22 11:27:35;;;;;;;33.88;32.10;;;;;;;;;;5035376;28;20045;-72
2022/05/22 11:30:22;;;;;;;37.05;35.15;;;;;;;;;;5019960;28;20514;-71
2022/05/22 11:33:07;;;;;;;47.60;45.15;;;;;;;;;;5032408;28;20029;-67
2022/05/22 11:35:44;;;;;;;32.88;31.08;;;;;;;;;;5034038;28;20037;-70
2022/05/22 11:38:19;;;;;;;34.80;33.00;;;;;;;;;;5029102;28;20033;-70
2022/05/22 11:41:01;;;;;;;60.42;57.42;;;;;;;;;;5030987;28;20094;-71
2022/05/22 11:44:04;;;;;;;45.75;43.38;;;;;;;;;;5033607;28;20049;-72
2022/05/22 11:46:51;;;;;;;41.65;39.53;;;;;;;;;;5032999;28;20033;-71
2022/05/22 11:49:38;;;;;;;25.63;24.27;;;;;;;;;;5027383;28;20116;-60
2022/05/22 11:52:53;;;;;;;26.65;25.25;;;;;;;;;;5028356;28;20026;-60
2022/05/22 11:55:16;;;;;;;50.00;47.45;;;;;;;;;;5026005;28;20041;-60
2022/05/22 11:57:59;;;;;;;29.63;28.02;;;;;;;;;;5024717;28;20045;-60
2022/05/22 12:00:35;;;;;;;28.00;26.50;;;;;;;;;;5025200;28;20124;-58
2022/05/22 12:03:25;;;;;;;38.35;36.35;;;;;;;;;;5023179;28;20072;-60
2022/05/22 12:06:09;;;;;;;28.98;27.45;;;;;;;;;;5021012;28;20037;-60
2022/05/22 12:08:49;;;;;;;28.42;26.92;;;;;;;;;;5025526;28;20909;-60
2022/05/22 12:11:25;;;;;;;29.20;27.65;;;;;;;;;;5024536;28;20112;-61
2022/05/22 12:14:23;;;;;;;28.63;27.13;;;;;;;;;;5029156;28;20452;-60
2022/05/22 12:16:58;;;;;;;21.40;20.20;;;;;;;;;;5013577;28;20048;-62
2022/05/22 12:19:49;;;;;;;22.98;21.67;;;;;;;;;;5028498;28;20542;-61
2022/05/22 12:22:16;;;;;;;29.67;28.08;;;;;;;;;;5028881;28;20072;-60
2022/05/22 12:25:01;;;;;;;27.50;26.05;;;;;;;;;;5023636;28;20037;-61
2022/05/22 12:27:27;;;;;;;38.85;36.85;;;;;;;;;;5027566;28;20072;-60
2022/05/22 12:30:13;;;;;;;35.13;33.33;;;;;;;;;;5026283;28;20033;-60
2022/05/22 12:32:50;;;;;;;34.85;33.05;;;;;;;;;;5027868;28;20068;-60
2022/05/22 12:35:17;;;;;;;33.53;31.83;;;;;;;;;;5032996;28;20528;-60
2022/05/22 12:37:47;;;;;;;38.72;36.63;;;;;;;;;;5026992;28;20033;-60
2022/05/22 12:40:16;;;;;;;;;;;;;;;;;;5025231;28;20111;-59
2022/05/22 12:42:50;;;;;;;23.65;22.35;;;;;;;;;;5021589;28;20028;-59
2022/05/22 12:45:16;;;;;;;31.00;29.40;;;;;;;;;;5027379;28;20025;-59
2022/05/22 12:47:45;;;;;;;26.52;25.13;;;;;;;;;;5027776;28;20708;-60
2022/05/22 12:50:12;;;;;;;34.67;32.88;;;;;;;;;;5027717;28;20040;-59
2022/05/22 12:52:40;;;;;;;33.75;32.03;;;;;;;;;;5029731;28;20068;-60
2022/05/22 12:55:31;;;;;;;35.60;33.70;;;;;;;;;;5024131;28;20029;-60
2022/05/22 12:58:00;;;;;;;43.55;41.33;;;;;;;;;;5021488;28;20141;-59
2022/05/22 13:00:37;;;;;;;34.53;32.72;;;;;;;;;;5023616;28;20076;-60
2022/05/22 13:03:09;;;;;;;28.98;27.48;;;;;;;;;;5027380;28;20524;-60
2022/05/22 13:05:35;;;;;;;37.35;35.45;;;;;;;;;;5026292;28;20033;-60
2022/05/22 13:08:00;;;;;;;55.08;52.13;;;;;;;;;;5027100;28;20446;-60
2022/05/22 13:10:42;;;;;;;33.35;31.63;;;;;;;;;;5031601;28;20037;-59
2022/05/22 13:13:09;;;;;;;33.42;31.63;;;;;;;;;;5027447;28;20045;-60
2022/05/22 13:15:48;;;;;;;38.25;36.20;;;;;;;;;;5027521;28;20044;-60
2022/05/22 13:18:18;;;;;;;30.17;28.55;;;;;;;;;;5031347;28;20029;-60
2022/05/22 13:20:55;;;;;;;30.88;29.20;;;;;;;;;;5025739;28;20087;-60
2022/05/22 13:23:21;;;;;;;28.95;27.45;;;;;;;;;;5028139;28;20099;-60
2022/05/22 13:25:49;;;;;;;26.50;25.10;;;;;;;;;;5031237;28;20045;-60
2022/05/22 13:28:45;;;;;;;30.10;28.50;;;;;;;;;;5029067;28;20049;-61
2022/05/22 13:31:11;;;;;;;28.20;26.70;;;;;;;;;;5028000;28;20076;-60
2022/05/22 13:33:42;;;;;;;27.63;26.13;;;;;;;;;;5031787;28;20040;-60
2022/05/22 13:36:29;;;;;;;32.63;30.92;;;;;;;;;;5027464;28;20039;-59
2022/05/22 13:38:58;;;;;;;161.23;152.48;;;;;;;;;;5028510;28;20041;-60
2022/05/22 13:41:26;;;;;;;101.80;96.22;;;;;;;;;;5028455;28;20025;-60
2022/05/22 13:44:14;;;;;;;175.57;166.13;;;;;;;;;;5027690;28;20029;-60
2022/05/22 13:46:57;;;;;;;115.60;109.40;;;;;;;;;;5027402;28;20515;-60
2022/05/22 13:52:34;;;;;;;183.43;173.70;;;;;;;;;;5030648;28;20119;-69
2022/05/22 13:53:05;;;;;;;270.13;255.88;;;;;;;;;;5032024;28;20037;-69
2022/05/22 13:55:30;;;;;;;170.00;160.90;;;;;;;;;;5035248;28;20175;-68
2022/05/22 13:57:59;;;;;;;182.32;172.52;;;;;;;;;;5035606;28;20115;-68
2022/05/22 14:00:28;;;;;;;359.75;340.63;;;;;;;;;;5035667;28;20118;-69
2022/05/22 14:02:53;;;;;;;382.77;361.88;;;;;;;;;;5030898;28;20052;-69
2022/05/22 14:05:19;;;;;;;240.98;228.23;;;;;;;;;;5036865;28;20037;-70
2022/05/22 14:07:53;;;;;;;321.70;304.65;;;;;;;;;;5035087;28;20044;-69
2022/05/22 14:10:33;;;;;;;164.52;155.70;;;;;;;;;;5035527;28;20070;-69
2022/05/22 14:13:10;;;;;;;260.98;247.10;;;;;;;;;;5034065;28;20044;-70
2022/05/22 14:15:36;;;;;;;308.77;292.23;;;;;;;;;;5033671;28;20028;-69
2022/05/22 14:18:14;;;;;;;252.50;239.02;;;;;;;;;;5033836;28;20048;-69
2022/05/22 14:20:43;;;;;;;389.30;368.30;;;;;;;;;;5035688;28;20172;-70
2022/05/22 14:23:19;;;;;;;420.17;397.27;;;;;;;;;;5032779;28;20087;-70
2022/05/22 14:25:46;;;;;;;218.85;207.02;;;;;;;;;;5035422;28;20528;-70
2022/05/22 14:28:13;;;;;;;275.77;260.80;;;;;;;;;;5033781;28;20052;-70
2022/05/22 14:30:41;;;;;;;459.33;433.98;;;;;;;;;;5032322;28;20040;-70
2022/05/22 14:33:09;;;;;;;368.90;349.10;;;;;;;;;;5032160;28;20029;-70
2022/05/22 14:35:44;;;;;;;451.52;426.63;;;;;;;;;;5030650;28;20045;-70
2022/05/22 14:38:23;;;;;;;490.70;463.23;;;;;;;;;;5033278;28;20033;-69
2022/05/22 14:40:59;;;;;;;425.42;402.48;;;;;;;;;;5031438;28;20060;-70
2022/05/22 14:43:31;;;;;;;283.15;268.38;;;;;;;;;;5036214;28;20040;-70
2022/05/22 14:45:59;;;;;;;298.95;283.23;;;;;;;;;;5029558;28;20033;-70
2022/05/22 14:48:31;;;;;;;491.45;464.20;;;;;;;;;;5033498;28;20048;-71
2022/05/22 14:51:07;;;;;;;450.98;426.42;;;;;;;;;;5031310;28;20035;-70
2022/05/22 14:53:38;;;;;;;499.67;471.80;;;;;;;;;;5033089;28;20043;-69
2022/05/22 14:56:13;;;;;;;434.95;411.42;;;;;;;;;;5030640;28;20025;-70
2022/05/22 14:58:50;;;;;;;493.10;465.70;;;;;;;;;;5031060;28;20028;-69
2022/05/22 15:01:32;;;;;;;478.27;452.05;;;;;;;;;;5033899;28;20033;-69